createdAt,value
2022-10-30T03:45:38.554Z,1015.96
2022-10-30T03:46:39.868Z,1015.91
2022-10-30T03:47:40.255Z,1015.94
2022-10-30T03:48:40.585Z,1015.94
2022-10-30T03:49:40.939Z,1015.98
2022-10-30T03:50:41.313Z,1016.03
2022-10-30T03:51:41.692Z,1016.03
2022-10-30T03:52:42.065Z,1016.03
2022-10-30T03:53:42.408Z,1016.03
2022-10-30T03:54:42.753Z,1016.05
2022-10-30T03:55:43.128Z,1016.02
2022-10-30T03:56:43.497Z,1016.05
2022-10-30T03:57:43.865Z,1016.01
2022-10-30T03:58:44.205Z,1016.02
2022-10-30T03:59:44.574Z,1016.07
2022-10-30T04:00:44.908Z,1016.07
2022-10-30T04:01:45.474Z,1016.10
2022-10-30T04:02:45.674Z,1016.11
2022-10-30T04:03:46.003Z,1016.05
2022-10-30T04:04:46.364Z,1016.03
2022-10-30T04:05:46.700Z,1016.00
2022-10-30T04:06:47.039Z,1016.04
2022-10-30T04:07:47.427Z,1016.03
2022-10-30T04:08:47.742Z,1015.98
2022-10-30T04:09:48.153Z,1016.02
2022-10-30T04:10:48.532Z,1015.96
2022-10-30T04:11:48.810Z,1015.98
2022-10-30T04:12:49.189Z,1015.94
2022-10-30T04:13:49.546Z,1015.90
2022-10-30T04:14:49.909Z,1015.94
2022-10-30T04:15:56.434Z,1015.97
2022-10-30T04:16:50.694Z,1015.96
2022-10-30T04:17:51.006Z,1015.99
2022-10-30T04:18:51.351Z,1015.98
2022-10-30T04:19:51.702Z,1015.95
2022-10-30T04:20:52.029Z,1015.98
2022-10-30T04:21:52.366Z,1015.93
2022-10-30T04:22:52.736Z,1015.96
2022-10-30T04:23:53.087Z,1015.90
2022-10-30T04:24:53.409Z,1015.86
2022-10-30T04:25:53.826Z,1015.89
2022-10-30T04:26:54.150Z,1015.85
2022-10-30T04:27:54.732Z,1015.88
2022-10-30T04:28:54.875Z,1015.84
2022-10-30T04:29:55.245Z,1015.87
2022-10-30T04:30:55.604Z,1015.84
2022-10-30T04:31:56.050Z,1015.88
2022-10-30T04:32:56.630Z,1015.82
2022-10-30T04:33:56.646Z,1015.81
2022-10-30T04:34:57.017Z,1015.83
2022-10-30T04:35:57.371Z,1015.88
2022-10-30T04:36:57.711Z,1015.87
2022-10-30T04:37:58.118Z,1015.91
2022-10-30T04:38:58.433Z,1015.92
2022-10-30T04:39:58.769Z,1015.93
2022-10-30T04:40:59.132Z,1015.87
2022-10-30T04:41:59.459Z,1015.89
2022-10-30T04:43:00.300Z,1015.89
2022-10-30T04:44:00.187Z,1015.94
2022-10-30T04:45:03.263Z,1016.00
2022-10-30T04:46:00.912Z,1015.93
2022-10-30T04:47:01.248Z,1015.94
2022-10-30T04:48:01.862Z,1015.92
2022-10-30T04:49:01.946Z,1015.89
2022-10-30T04:50:02.329Z,1015.92
2022-10-30T04:51:02.663Z,1015.88
2022-10-30T04:52:03.061Z,1015.94
2022-10-30T04:53:03.430Z,1015.92
2022-10-30T04:54:03.776Z,1015.92
2022-10-30T04:55:04.147Z,1015.90
2022-10-30T04:56:04.484Z,1015.90
2022-10-30T04:57:04.821Z,1015.86
2022-10-30T04:58:05.208Z,1015.87
2022-10-30T04:59:05.543Z,1015.84
2022-10-30T05:00:05.916Z,1015.78
2022-10-30T05:01:06.336Z,1015.86
2022-10-30T05:02:06.821Z,1015.89
2022-10-30T05:03:07.043Z,1015.83
2022-10-30T05:04:07.338Z,1015.83
2022-10-30T05:05:07.696Z,1015.83
2022-10-30T05:06:08.055Z,1015.88
2022-10-30T05:07:08.441Z,1015.88
2022-10-30T05:08:08.800Z,1015.88
2022-10-30T05:09:09.158Z,1015.91
2022-10-30T05:10:09.513Z,1015.91
2022-10-30T05:11:09.908Z,1015.96
2022-10-30T05:12:10.251Z,1015.94
2022-10-30T05:13:10.613Z,1015.98
2022-10-30T05:14:10.925Z,1015.96
2022-10-30T05:15:11.269Z,1015.97
2022-10-30T05:16:11.681Z,1015.93
2022-10-30T05:17:12.014Z,1016.01
2022-10-30T05:18:12.389Z,1016.02
2022-10-30T05:19:12.727Z,1015.99
2022-10-30T05:20:14.870Z,1015.99
2022-10-30T05:21:13.487Z,1015.98
2022-10-30T05:22:13.859Z,1015.95
2022-10-30T05:23:14.213Z,1015.99
2022-10-30T05:24:14.553Z,1015.95
2022-10-30T05:25:14.899Z,1015.96
2022-10-30T05:26:15.242Z,1015.96
2022-10-30T05:27:15.599Z,1016.01
2022-10-30T05:28:15.948Z,1015.98
2022-10-30T05:29:16.287Z,1015.97
2022-10-30T05:30:16.640Z,1015.96
2022-10-30T05:31:16.994Z,1015.96
2022-10-30T05:32:17.332Z,1015.98
2022-10-30T05:33:17.698Z,1015.96
2022-10-30T05:34:18.063Z,1015.96
2022-10-30T05:35:18.424Z,1015.95
2022-10-30T05:36:18.756Z,1015.94
2022-10-30T05:37:19.114Z,1015.98
2022-10-30T05:38:19.540Z,1015.95
2022-10-30T05:39:19.886Z,1015.93
2022-10-30T05:40:20.232Z,1015.94
2022-10-30T05:41:20.591Z,1015.99
2022-10-30T05:42:20.826Z,1015.98
2022-10-30T05:43:21.118Z,1015.92
2022-10-30T05:44:34.650Z,1015.98
2022-10-30T05:45:21.685Z,1015.99
2022-10-30T05:46:22.009Z,1015.98
2022-10-30T05:47:22.141Z,1016.01
2022-10-30T05:48:22.444Z,1016.01
2022-10-30T05:49:22.720Z,1015.99
2022-10-30T05:50:22.979Z,1016.03
2022-10-30T05:51:23.265Z,1016.05
2022-10-30T05:52:23.559Z,1016.02
2022-10-30T05:53:23.741Z,1015.99
2022-10-30T05:54:24.005Z,1016.04
2022-10-30T05:55:24.182Z,1016.03
2022-10-30T05:56:24.334Z,1016.00
2022-10-30T05:57:24.523Z,1016.02
2022-10-30T05:58:24.697Z,1016.04
2022-10-30T05:59:24.841Z,1016.03
2022-10-30T06:00:25.135Z,1016.06
2022-10-30T06:01:25.428Z,1016.09
2022-10-30T06:02:25.617Z,1016.09
2022-10-30T06:03:25.776Z,1016.12
2022-10-30T06:04:25.949Z,1016.12
2022-10-30T06:05:26.116Z,1016.09
2022-10-30T06:06:26.291Z,1016.08
2022-10-30T06:07:26.441Z,1016.11
2022-10-30T06:08:26.754Z,1016.13
2022-10-30T06:09:26.919Z,1016.15
2022-10-30T06:10:27.082Z,1016.17
2022-10-30T06:11:27.252Z,1016.16
2022-10-30T06:12:27.449Z,1016.17
2022-10-30T06:13:27.623Z,1016.22
2022-10-30T06:14:27.807Z,1016.22
2022-10-30T06:15:28.110Z,1016.27
2022-10-30T06:16:28.300Z,1016.25
2022-10-30T06:17:28.622Z,1016.26
2022-10-30T06:18:28.776Z,1016.27
2022-10-30T06:19:29.070Z,1016.28
2022-10-30T06:20:29.356Z,1016.29
2022-10-30T06:21:29.539Z,1016.24
2022-10-30T06:22:29.730Z,1016.24
2022-10-30T06:23:30.062Z,1016.29
2022-10-30T06:24:30.190Z,1016.31
2022-10-30T06:25:30.511Z,1016.23
2022-10-30T06:26:30.797Z,1016.27
2022-10-30T06:27:30.981Z,1016.32
2022-10-30T06:28:31.186Z,1016.34
2022-10-30T06:29:31.486Z,1016.32
2022-10-30T06:30:31.788Z,1016.29
2022-10-30T06:31:32.072Z,1016.30
2022-10-30T06:32:32.253Z,1016.34
2022-10-30T06:33:32.471Z,1016.35
2022-10-30T06:34:32.652Z,1016.36
2022-10-30T06:35:32.810Z,1016.30
2022-10-30T06:36:33.159Z,1016.28
2022-10-30T06:37:33.301Z,1016.35
2022-10-30T06:38:33.605Z,1016.31
2022-10-30T06:39:33.886Z,1016.33
2022-10-30T06:40:34.171Z,1016.30
2022-10-30T06:41:34.382Z,1016.24
2022-10-30T06:42:34.654Z,1016.22
2022-10-30T06:43:34.973Z,1016.22
2022-10-30T06:44:35.370Z,1016.24
2022-10-30T06:45:35.547Z,1016.29
2022-10-30T06:46:35.738Z,1016.30
2022-10-30T06:47:35.918Z,1016.30
2022-10-30T06:48:36.113Z,1016.30
2022-10-30T06:49:36.287Z,1016.32
2022-10-30T06:50:36.424Z,1016.35
2022-10-30T06:51:36.638Z,1016.26
2022-10-30T06:52:36.801Z,1016.29
2022-10-30T06:53:37.015Z,1016.31
2022-10-30T06:54:37.203Z,1016.29
2022-10-30T06:55:37.333Z,1016.35
2022-10-30T06:56:37.510Z,1016.30
2022-10-30T06:57:37.684Z,1016.34
2022-10-30T06:58:37.867Z,1016.33
2022-10-30T06:59:38.044Z,1016.36
2022-10-30T07:00:38.242Z,1016.35
2022-10-30T07:01:38.468Z,1016.41
2022-10-30T07:02:38.588Z,1016.38
2022-10-30T07:03:38.791Z,1016.41
2022-10-30T07:04:38.921Z,1016.43
2022-10-30T07:05:39.108Z,1016.37
2022-10-30T07:06:39.301Z,1016.36
2022-10-30T07:07:39.470Z,1016.40
2022-10-30T07:08:39.662Z,1016.41
2022-10-30T07:09:39.851Z,1016.37
2022-10-30T07:10:40.059Z,1016.40
2022-10-30T07:11:40.200Z,1016.41
2022-10-30T07:12:40.386Z,1016.40
2022-10-30T07:13:40.565Z,1016.47
2022-10-30T07:14:40.743Z,1016.44
2022-10-30T07:16:41.090Z,1016.43
2022-10-30T07:17:41.347Z,1016.47
2022-10-30T07:18:41.456Z,1016.50
2022-10-30T07:19:41.638Z,1016.51
2022-10-30T07:20:41.811Z,1016.49
2022-10-30T07:21:41.993Z,1016.47
2022-10-30T07:22:42.173Z,1016.49
2022-10-30T07:23:42.388Z,1016.56
2022-10-30T07:24:42.525Z,1016.53
2022-10-30T07:25:42.704Z,1016.53
2022-10-30T07:26:42.881Z,1016.60
2022-10-30T07:27:43.052Z,1016.62
2022-10-30T07:28:43.269Z,1016.66
2022-10-30T07:29:43.438Z,1016.62
2022-10-30T07:30:43.603Z,1016.66
2022-10-30T07:31:57.542Z,1016.61
2022-10-30T07:32:43.960Z,1016.60
2022-10-30T07:33:44.151Z,1016.63
2022-10-30T07:34:44.336Z,1016.65
2022-10-30T07:35:44.551Z,1016.65
2022-10-30T07:36:44.709Z,1016.62
2022-10-30T07:37:44.889Z,1016.64
2022-10-30T07:38:45.135Z,1016.64
2022-10-30T07:39:45.281Z,1016.67
2022-10-30T07:40:45.455Z,1016.66
2022-10-30T07:41:49.862Z,1016.68
2022-10-30T07:42:45.813Z,1016.64
2022-10-30T07:43:46.024Z,1016.68
2022-10-30T07:44:46.197Z,1016.70
2022-10-30T07:45:46.396Z,1016.71
2022-10-30T07:46:46.565Z,1016.78
2022-10-30T07:47:46.737Z,1016.77
2022-10-30T07:48:46.939Z,1016.79
2022-10-30T07:49:47.127Z,1016.76
2022-10-30T07:50:47.289Z,1016.76
2022-10-30T07:51:47.483Z,1016.77
2022-10-30T07:52:47.676Z,1016.79
2022-10-30T07:53:47.868Z,1016.81
2022-10-30T07:54:48.064Z,1016.83
2022-10-30T07:55:48.261Z,1016.83
2022-10-30T07:56:48.426Z,1016.81
2022-10-30T07:57:48.610Z,1016.81
2022-10-30T07:58:48.834Z,1016.80
2022-10-30T08:00:49.154Z,1016.82
2022-10-30T08:01:49.656Z,1016.85
2022-10-30T08:02:49.624Z,1016.86
2022-10-30T08:03:49.723Z,1016.87
2022-10-30T08:04:49.856Z,1016.90
2022-10-30T08:05:50.086Z,1016.88
2022-10-30T08:06:50.230Z,1016.84
2022-10-30T08:07:50.421Z,1016.84
2022-10-30T08:08:50.602Z,1016.85
2022-10-30T08:09:50.845Z,1016.90
2022-10-30T08:10:50.965Z,1016.90
2022-10-30T08:11:51.179Z,1016.92
2022-10-30T08:12:51.320Z,1016.86
2022-10-30T08:13:51.587Z,1016.89
2022-10-30T08:14:51.710Z,1016.86
2022-10-30T08:15:51.855Z,1016.86
2022-10-30T08:16:52.095Z,1016.85
2022-10-30T08:17:52.241Z,1016.89
2022-10-30T08:18:52.408Z,1016.93
2022-10-30T08:19:52.588Z,1016.92
2022-10-30T08:20:52.768Z,1016.96
2022-10-30T08:21:56.117Z,1016.95
2022-10-30T08:22:53.125Z,1016.94
2022-10-30T08:23:53.328Z,1016.96
2022-10-30T08:24:53.529Z,1016.99
2022-10-30T08:25:53.733Z,1017.02
2022-10-30T08:26:53.964Z,1017.03
2022-10-30T08:27:54.098Z,1017.04
2022-10-30T08:28:54.290Z,1017.02
2022-10-30T08:29:54.474Z,1017.04
2022-10-30T08:30:54.648Z,1017.01
2022-10-30T08:31:54.839Z,1017.00
2022-10-30T08:32:55.156Z,1017.05
2022-10-30T08:33:55.228Z,1017.02
2022-10-30T08:34:55.419Z,1016.99
2022-10-30T08:35:55.695Z,1017.00
2022-10-30T08:36:55.783Z,1016.98
2022-10-30T08:37:56.394Z,1016.96
2022-10-30T08:38:56.186Z,1016.98
2022-10-30T08:39:56.308Z,1016.98
2022-10-30T08:40:56.488Z,1016.99
2022-10-30T08:41:56.693Z,1016.98
2022-10-30T08:42:56.877Z,1017.01
2022-10-30T08:43:57.083Z,1017.00
2022-10-30T08:44:57.398Z,1016.97
2022-10-30T08:45:57.460Z,1016.99
2022-10-30T08:46:57.592Z,1017.03
2022-10-30T08:47:58.121Z,1017.04
2022-10-30T08:48:58.000Z,1017.03
2022-10-30T08:49:58.144Z,1017.05
2022-10-30T08:50:58.355Z,1017.03
2022-10-30T08:51:58.529Z,1017.06
2022-10-30T08:52:58.993Z,1017.04
2022-10-30T08:53:58.901Z,1017.06
2022-10-30T08:54:59.071Z,1017.10
2022-10-30T08:55:59.272Z,1017.04
2022-10-30T08:56:59.418Z,1017.06
2022-10-30T08:57:59.615Z,1017.07
2022-10-30T08:58:59.805Z,1017.07
2022-10-30T09:00:00.010Z,1017.07
2022-10-30T09:01:01.578Z,1017.07
2022-10-30T09:02:00.463Z,1017.03
2022-10-30T09:03:01.059Z,1017.12
2022-10-30T09:04:00.710Z,1016.99
2022-10-30T09:05:00.956Z,1017.03
2022-10-30T09:06:01.084Z,1017.03
2022-10-30T09:07:01.278Z,1017.04
2022-10-30T09:08:02.304Z,1017.03
2022-10-30T09:09:01.650Z,1017.00
2022-10-30T09:10:01.869Z,1017.03
2022-10-30T09:11:02.014Z,1017.03
2022-10-30T09:12:02.197Z,1017.01
2022-10-30T09:13:02.446Z,1017.07
2022-10-30T09:14:02.579Z,1017.06
2022-10-30T09:15:02.719Z,1017.06
2022-10-30T09:16:02.933Z,1017.08
2022-10-30T09:17:03.091Z,1017.07
2022-10-30T09:18:03.571Z,1017.04
2022-10-30T09:19:03.481Z,1017.02
2022-10-30T09:20:03.639Z,1016.93
2022-10-30T09:21:05.174Z,1016.96
2022-10-30T09:22:04.006Z,1016.97
2022-10-30T09:23:04.447Z,1016.97
2022-10-30T09:24:04.451Z,1016.98
2022-10-30T09:25:04.529Z,1017.04
2022-10-30T09:26:04.725Z,1017.02
2022-10-30T09:27:04.916Z,1017.03
2022-10-30T09:28:05.106Z,1017.07
2022-10-30T09:29:05.319Z,1017.03
2022-10-30T09:30:05.478Z,1017.03
2022-10-30T09:31:05.690Z,1017.09
2022-10-30T09:32:05.866Z,1017.05
2022-10-30T09:33:06.138Z,1017.03
2022-10-30T09:34:06.237Z,1017.05
2022-10-30T09:35:06.431Z,1017.02
2022-10-30T09:36:06.642Z,1017.04
2022-10-30T09:37:06.823Z,1017.03
2022-10-30T09:38:07.021Z,1017.02
2022-10-30T09:39:07.256Z,1016.98
2022-10-30T09:40:07.379Z,1017.02
2022-10-30T09:41:07.576Z,1017.03
2022-10-30T09:42:07.761Z,1017.03
2022-10-30T09:43:07.960Z,1017.05
2022-10-30T09:44:08.163Z,1017.04
2022-10-30T09:45:27.796Z,1017.08
2022-10-30T09:46:08.487Z,1017.06
2022-10-30T09:47:08.679Z,1017.03
2022-10-30T09:48:08.893Z,1017.02
2022-10-30T09:50:09.201Z,1016.96
2022-10-30T09:51:09.404Z,1016.94
2022-10-30T09:52:09.590Z,1016.92
2022-10-30T09:53:09.781Z,1016.92
2022-10-30T09:54:09.971Z,1016.92
2022-10-30T09:55:10.155Z,1016.98
2022-10-30T09:56:10.336Z,1016.95
2022-10-30T09:57:10.532Z,1016.95
2022-10-30T09:58:10.714Z,1016.98
2022-10-30T09:59:10.915Z,1016.94
2022-10-30T10:00:11.066Z,1016.98
2022-10-30T10:01:11.273Z,1017.03
2022-10-30T10:02:11.624Z,1017.02
2022-10-30T10:03:11.636Z,1016.96
2022-10-30T10:04:11.862Z,1016.95
2022-10-30T10:05:12.031Z,1016.96
2022-10-30T10:06:12.218Z,1016.88
2022-10-30T10:07:12.387Z,1016.94
2022-10-30T10:08:12.600Z,1016.93
2022-10-30T10:09:12.812Z,1016.95
2022-10-30T10:10:13.018Z,1016.93
2022-10-30T10:11:13.152Z,1016.90
2022-10-30T10:12:13.345Z,1016.89
2022-10-30T10:13:13.530Z,1016.83
2022-10-30T10:14:13.735Z,1016.81
2022-10-30T10:15:13.907Z,1016.82
2022-10-30T10:16:14.071Z,1016.88
2022-10-30T10:17:14.284Z,1016.80
2022-10-30T10:18:14.478Z,1016.82
2022-10-30T10:19:14.685Z,1016.82
2022-10-30T10:20:14.879Z,1016.77
2022-10-30T10:21:15.086Z,1016.81
2022-10-30T10:22:15.279Z,1016.77
2022-10-30T10:23:15.478Z,1016.74
2022-10-30T10:24:19.559Z,1016.69
2022-10-30T10:25:15.896Z,1016.64
2022-10-30T10:26:16.124Z,1016.64
2022-10-30T10:27:16.301Z,1016.60
2022-10-30T10:28:16.519Z,1016.62
2022-10-30T10:29:16.738Z,1016.61
2022-10-30T10:30:16.914Z,1016.57
2022-10-30T10:31:17.119Z,1016.59
2022-10-30T10:32:17.324Z,1016.63
2022-10-30T10:33:17.600Z,1016.65
2022-10-30T10:34:17.726Z,1016.63
2022-10-30T10:35:17.930Z,1016.69
2022-10-30T10:36:18.142Z,1016.63
2022-10-30T10:37:18.339Z,1016.65
2022-10-30T10:38:18.529Z,1016.69
2022-10-30T10:39:18.776Z,1016.65
2022-10-30T10:40:18.942Z,1016.66
2022-10-30T10:41:19.154Z,1016.71
2022-10-30T10:42:19.349Z,1016.72
2022-10-30T10:43:19.550Z,1016.70
2022-10-30T10:44:19.774Z,1016.68
2022-10-30T10:45:19.967Z,1016.70
2022-10-30T10:46:20.117Z,1016.68
2022-10-30T10:47:20.307Z,1016.69
2022-10-30T10:48:20.518Z,1016.67
2022-10-30T10:49:20.751Z,1016.65
2022-10-30T10:50:21.016Z,1016.61
2022-10-30T10:51:21.137Z,1016.58
2022-10-30T10:52:21.349Z,1016.67
2022-10-30T10:53:21.557Z,1016.64
2022-10-30T10:54:21.781Z,1016.62
2022-10-30T10:55:21.953Z,1016.66
2022-10-30T10:56:22.146Z,1016.69
2022-10-30T10:57:22.347Z,1016.64
2022-10-30T10:58:22.561Z,1016.66
2022-10-30T10:59:22.761Z,1016.70
2022-10-30T11:00:22.954Z,1016.69
2022-10-30T11:01:23.273Z,1016.71
2022-10-30T11:02:23.547Z,1016.64
2022-10-30T11:03:23.570Z,1016.60
2022-10-30T11:04:23.781Z,1016.61
2022-10-30T11:05:23.936Z,1016.62
2022-10-30T11:06:24.143Z,1016.60
2022-10-30T11:07:24.350Z,1016.61
2022-10-30T11:08:24.560Z,1016.60
2022-10-30T11:09:24.772Z,1016.56
2022-10-30T11:10:24.952Z,1016.61
2022-10-30T11:11:25.162Z,1016.61
2022-10-30T11:12:25.376Z,1016.60
2022-10-30T11:13:25.586Z,1016.63
2022-10-30T11:14:25.854Z,1016.63
2022-10-30T11:15:25.976Z,1016.64
2022-10-30T11:16:26.177Z,1016.61
2022-10-30T11:17:26.388Z,1016.61
2022-10-30T11:18:26.582Z,1016.62
2022-10-30T11:19:26.841Z,1016.62
2022-10-30T11:20:26.996Z,1016.63
2022-10-30T11:21:27.209Z,1016.59
2022-10-30T11:22:27.392Z,1016.59
2022-10-30T11:23:27.599Z,1016.56
2022-10-30T11:24:27.839Z,1016.57
2022-10-30T11:25:30.203Z,1016.59
2022-10-30T11:26:28.170Z,1016.55
2022-10-30T11:27:28.431Z,1016.54
2022-10-30T11:28:28.591Z,1016.51
2022-10-30T11:29:28.804Z,1016.53
2022-10-30T11:30:29.020Z,1016.56
2022-10-30T11:31:29.161Z,1016.48
2022-10-30T11:32:29.361Z,1016.49
2022-10-30T11:33:29.565Z,1016.43
2022-10-30T11:34:29.774Z,1016.48
2022-10-30T11:35:29.983Z,1016.48
2022-10-30T11:36:30.148Z,1016.53
2022-10-30T11:37:30.387Z,1016.52
2022-10-30T11:38:30.546Z,1016.49
2022-10-30T11:39:30.819Z,1016.50
2022-10-30T11:40:30.936Z,1016.46
2022-10-30T11:41:31.150Z,1016.47
2022-10-30T11:42:31.345Z,1016.49
2022-10-30T11:43:31.541Z,1016.49
2022-10-30T11:44:31.767Z,1016.45
2022-10-30T11:45:31.916Z,1016.46
2022-10-30T11:46:32.088Z,1016.44
2022-10-30T11:47:32.341Z,1016.43
2022-10-30T11:48:32.516Z,1016.44
2022-10-30T11:49:32.727Z,1016.47
2022-10-30T11:50:32.889Z,1016.41
2022-10-30T11:51:33.173Z,1016.40
2022-10-30T11:52:33.268Z,1016.36
2022-10-30T11:53:33.471Z,1016.38
2022-10-30T11:54:33.693Z,1016.41
2022-10-30T11:55:33.909Z,1016.41
2022-10-30T11:56:34.100Z,1016.40
2022-10-30T11:57:34.306Z,1016.38
2022-10-30T11:58:34.456Z,1016.37
2022-10-30T11:59:34.696Z,1016.38
2022-10-30T12:00:34.882Z,1016.38
2022-10-30T12:01:35.099Z,1016.37
2022-10-30T12:02:35.281Z,1016.38
2022-10-30T12:03:35.425Z,1016.39
2022-10-30T12:04:35.634Z,1016.35
2022-10-30T12:05:35.836Z,1016.35
2022-10-30T12:06:36.030Z,1016.33
2022-10-30T12:07:36.227Z,1016.34
2022-10-30T12:08:36.450Z,1016.37
2022-10-30T12:09:36.667Z,1016.38
2022-10-30T12:10:36.867Z,1016.37
2022-10-30T12:11:37.062Z,1016.39
2022-10-30T12:12:37.254Z,1016.42
2022-10-30T12:13:37.473Z,1016.42
2022-10-30T12:14:37.719Z,1016.43
2022-10-30T12:15:37.869Z,1016.46
2022-10-30T12:16:38.065Z,1016.48
2022-10-30T12:17:38.272Z,1016.41
2022-10-30T12:18:38.497Z,1016.49
2022-10-30T12:19:38.675Z,1016.42
2022-10-30T12:20:38.870Z,1016.40
2022-10-30T12:21:39.039Z,1016.41
2022-10-30T12:22:39.197Z,1016.39
2022-10-30T12:23:39.398Z,1016.43
2022-10-30T12:24:39.556Z,1016.35
2022-10-30T12:25:39.775Z,1016.44
2022-10-30T12:26:39.936Z,1016.40
2022-10-30T12:27:40.147Z,1016.40
2022-10-30T12:28:40.345Z,1016.38
2022-10-30T12:30:07.880Z,1016.37
2022-10-30T12:30:40.700Z,1016.33
2022-10-30T12:31:40.924Z,1016.34
2022-10-30T12:32:41.098Z,1016.32
2022-10-30T12:33:41.311Z,1016.31
2022-10-30T12:34:41.512Z,1016.32
2022-10-30T12:35:41.675Z,1016.25
2022-10-30T12:36:41.837Z,1016.33
2022-10-30T12:37:42.705Z,1016.28
2022-10-30T12:38:42.217Z,1016.31
2022-10-30T12:39:42.485Z,1016.28
2022-10-30T12:40:42.613Z,1016.29
2022-10-30T12:41:42.812Z,1016.30
2022-10-30T12:42:43.161Z,1016.28
2022-10-30T12:43:43.214Z,1016.28
2022-10-30T12:44:43.445Z,1016.28
2022-10-30T12:45:43.582Z,1016.31
2022-10-30T12:46:43.769Z,1016.34
2022-10-30T12:47:43.972Z,1016.33
2022-10-30T12:48:44.126Z,1016.36
2022-10-30T12:49:44.389Z,1016.37
2022-10-30T12:50:44.538Z,1016.35
2022-10-30T12:51:44.730Z,1016.30
2022-10-30T12:52:44.915Z,1016.30
2022-10-30T12:53:45.095Z,1016.29
2022-10-30T12:54:45.301Z,1016.27
2022-10-30T12:55:45.462Z,1016.33
2022-10-30T12:56:45.675Z,1016.29
2022-10-30T12:57:45.882Z,1016.29
2022-10-30T12:58:46.052Z,1016.28
2022-10-30T12:59:46.276Z,1016.26
2022-10-30T13:00:46.432Z,1016.28
2022-10-30T13:01:46.742Z,1016.29
2022-10-30T13:02:46.883Z,1016.31
2022-10-30T13:03:47.008Z,1016.32
2022-10-30T13:04:47.219Z,1016.31
2022-10-30T13:05:47.440Z,1016.35
2022-10-30T13:06:47.573Z,1016.40
2022-10-30T13:07:47.747Z,1016.35
2022-10-30T13:08:50.993Z,1016.33
2022-10-30T13:09:48.168Z,1016.35
2022-10-30T13:10:48.317Z,1016.34
2022-10-30T13:11:48.494Z,1016.34
2022-10-30T13:12:48.653Z,1016.35
2022-10-30T13:13:48.872Z,1016.33
2022-10-30T13:14:49.074Z,1016.35
2022-10-30T13:15:49.255Z,1016.32
2022-10-30T13:16:49.416Z,1016.33
2022-10-30T13:17:49.627Z,1016.32
2022-10-30T13:18:49.809Z,1016.31
2022-10-30T13:19:50.000Z,1016.30
2022-10-30T13:20:50.166Z,1016.29
2022-10-30T13:21:50.383Z,1016.30
2022-10-30T13:22:50.558Z,1016.30
2022-10-30T13:23:50.763Z,1016.31
2022-10-30T13:24:50.970Z,1016.28
2022-10-30T13:25:51.124Z,1016.23
2022-10-30T13:26:51.355Z,1016.21
2022-10-30T13:27:51.523Z,1016.22
2022-10-30T13:28:51.736Z,1016.21
2022-10-30T13:29:51.942Z,1016.19
2022-10-30T13:30:52.107Z,1016.19
2022-10-30T13:31:52.281Z,1016.22
2022-10-30T13:32:52.438Z,1016.19
2022-10-30T13:33:52.680Z,1016.20
2022-10-30T13:34:52.816Z,1016.18
2022-10-30T13:35:52.967Z,1016.14
2022-10-30T13:36:53.180Z,1016.17
2022-10-30T13:37:53.386Z,1016.14
2022-10-30T13:38:53.561Z,1016.14
2022-10-30T13:39:53.812Z,1016.12
2022-10-30T13:40:53.964Z,1016.12
2022-10-30T13:41:54.185Z,1016.11
2022-10-30T13:42:54.344Z,1016.07
2022-10-30T13:43:54.513Z,1016.11
2022-10-30T13:44:54.745Z,1016.11
2022-10-30T13:45:54.894Z,1016.08
2022-10-30T13:46:55.074Z,1016.09
2022-10-30T13:47:55.266Z,1016.15
2022-10-30T13:48:55.458Z,1016.12
2022-10-30T13:49:55.687Z,1016.12
2022-10-30T13:50:55.893Z,1016.08
2022-10-30T13:51:56.061Z,1016.12
2022-10-30T13:52:56.700Z,1016.14
2022-10-30T13:53:56.444Z,1016.13
2022-10-30T13:54:56.634Z,1016.11
2022-10-30T13:55:56.813Z,1016.09
2022-10-30T13:56:56.992Z,1016.07
2022-10-30T13:57:57.162Z,1016.02
2022-10-30T13:58:57.356Z,1016.04
2022-10-30T13:59:57.601Z,1016.06
2022-10-30T14:00:57.819Z,1016.03
2022-10-30T14:02:01.548Z,1016.04
2022-10-30T14:02:58.618Z,1016.06
2022-10-30T14:03:58.347Z,1016.03
2022-10-30T14:04:58.519Z,1016.05
2022-10-30T14:05:58.731Z,1016.04
2022-10-30T14:06:58.880Z,1016.08
2022-10-30T14:08:05.188Z,1016.05
2022-10-30T14:08:59.259Z,1016.07
2022-10-30T14:09:59.425Z,1016.09
2022-10-30T14:11:00.821Z,1016.10
2022-10-30T14:11:59.788Z,1016.12
2022-10-30T14:13:00.323Z,1016.17
2022-10-30T14:14:00.178Z,1016.21
2022-10-30T14:15:00.428Z,1016.18
2022-10-30T14:16:00.569Z,1016.18
2022-10-30T14:17:00.752Z,1016.17
2022-10-30T14:18:00.932Z,1016.19
2022-10-30T14:19:01.125Z,1016.19
2022-10-30T14:20:01.381Z,1016.17
2022-10-30T14:21:01.554Z,1016.21
2022-10-30T14:22:01.742Z,1016.17
2022-10-30T14:23:01.928Z,1016.16
2022-10-30T14:24:02.160Z,1016.16
2022-10-30T14:25:02.350Z,1016.16
2022-10-30T14:26:02.548Z,1016.21
2022-10-30T14:27:02.716Z,1016.18
2022-10-30T14:28:03.085Z,1016.23
2022-10-30T14:29:03.082Z,1016.21
2022-10-30T14:30:03.310Z,1016.17
2022-10-30T14:31:03.507Z,1016.18
2022-10-30T14:32:03.652Z,1016.18
2022-10-30T14:33:03.844Z,1016.14
2022-10-30T14:34:04.036Z,1016.13
2022-10-30T14:35:04.309Z,1016.13
2022-10-30T14:36:04.410Z,1016.13
2022-10-30T14:37:04.641Z,1016.10
2022-10-30T14:38:04.808Z,1016.03
2022-10-30T14:39:05.010Z,1016.13
2022-10-30T14:40:05.262Z,1016.15
2022-10-30T14:41:08.313Z,1016.14
2022-10-30T14:42:05.597Z,1016.09
2022-10-30T14:43:05.793Z,1016.09
2022-10-30T14:44:06.010Z,1016.08
2022-10-30T14:45:06.217Z,1016.05
2022-10-30T14:46:06.354Z,1016.09
2022-10-30T14:47:06.534Z,1016.07
2022-10-30T14:48:06.698Z,1016.01
2022-10-30T14:49:06.913Z,1015.98
2022-10-30T14:50:07.176Z,1015.99
2022-10-30T14:51:07.253Z,1016.00
2022-10-30T14:52:07.471Z,1016.01
2022-10-30T14:53:07.651Z,1015.97
2022-10-30T14:54:07.905Z,1015.92
2022-10-30T14:55:08.025Z,1015.97
2022-10-30T14:56:08.219Z,1015.97
2022-10-30T14:57:08.374Z,1015.98
2022-10-30T14:58:08.611Z,1015.94
2022-10-30T14:59:08.746Z,1015.92
2022-10-30T15:00:08.974Z,1015.90
2022-10-30T15:01:09.233Z,1015.92
2022-10-30T15:02:09.545Z,1015.88
2022-10-30T15:03:09.491Z,1015.90
2022-10-30T15:04:09.691Z,1015.90
2022-10-30T15:05:10.062Z,1015.91
2022-10-30T15:06:10.170Z,1015.97
2022-10-30T15:07:10.286Z,1015.98
2022-10-30T15:08:10.478Z,1015.94
2022-10-30T15:09:10.663Z,1015.94
2022-10-30T15:10:10.899Z,1015.94
2022-10-30T15:11:15.279Z,1015.96
2022-10-30T15:12:11.241Z,1015.89
2022-10-30T15:13:11.437Z,1015.94
2022-10-30T15:14:21.036Z,1015.89
2022-10-30T15:15:11.878Z,1015.93
2022-10-30T15:16:11.992Z,1015.90
2022-10-30T15:17:12.155Z,1015.91
2022-10-30T15:18:12.332Z,1015.88
2022-10-30T15:19:12.517Z,1015.98
2022-10-30T15:20:12.671Z,1015.95
2022-10-30T15:21:12.851Z,1015.93
2022-10-30T15:22:13.034Z,1015.96
2022-10-30T15:23:13.222Z,1015.94
2022-10-30T15:24:13.387Z,1015.96
2022-10-30T15:25:13.595Z,1015.97
2022-10-30T15:26:13.764Z,1016.03
2022-10-30T15:27:13.970Z,1016.03
2022-10-30T15:28:14.150Z,1016.01
2022-10-30T15:29:14.360Z,1015.96
2022-10-30T15:30:14.475Z,1015.96
2022-10-30T15:31:14.645Z,1015.97
2022-10-30T15:32:14.838Z,1015.98
2022-10-30T15:33:15.044Z,1016.04
2022-10-30T15:34:15.146Z,1016.01
2022-10-30T15:35:15.325Z,1015.99
2022-10-30T15:36:15.478Z,1015.99
2022-10-30T15:37:15.640Z,1015.95
2022-10-30T15:38:15.829Z,1015.98
2022-10-30T15:39:16.018Z,1015.93
2022-10-30T15:40:16.233Z,1015.89
2022-10-30T15:41:16.346Z,1015.96
2022-10-30T15:42:16.505Z,1015.97
2022-10-30T15:43:16.699Z,1015.95
2022-10-30T15:45:17.198Z,1015.97
2022-10-30T15:46:23.332Z,1015.95
2022-10-30T15:47:17.498Z,1015.99
2022-10-30T15:48:17.687Z,1016.06
2022-10-30T15:49:17.986Z,1016.07
2022-10-30T15:50:18.315Z,1016.07
2022-10-30T15:51:18.493Z,1016.09
2022-10-30T15:52:18.621Z,1016.14
2022-10-30T15:53:18.804Z,1016.14
2022-10-30T15:54:18.997Z,1016.15
2022-10-30T15:55:19.185Z,1016.19
2022-10-30T15:56:20.020Z,1016.16
2022-10-30T15:58:20.189Z,1016.19